Time,TemperatureF,DewpointF,PressureIn,WindDirection,WindDirectionDegrees,WindSpeedMPH,WindSpeedGustMPH,Humidity,HourlyPrecipIn,Conditions,Clouds,dailyrainin,SolarRadiationWatts/m^2,SoftwareType,DateUTC
2013-05-13 00:01:00,67.0,46.0,-100.00,NNW,346,3.0,14.0,47,0.00,,,0.00,0.000000,,2013-05-13 06:01:00,
2013-05-13 00:11:00,67.0,46.0,-100.00,NNW,346,3.0,14.0,47,0.00,,,0.00,0.000000,,2013-05-13 06:11:00,
2013-05-13 00:21:00,67.0,46.0,-100.00,NNW,346,3.0,14.0,47,0.00,,,0.00,0.000000,,2013-05-13 06:21:00,
2013-05-13 00:31:00,67.0,46.0,-100.00,NNW,346,3.0,14.0,47,0.00,,,0.00,0.000000,,2013-05-13 06:31:00,
2013-05-13 01:01:00,66.0,49.0,-100.00,NNE,29,3.0,10.0,54,0.00,,,0.00,0.000000,,2013-05-13 07:01:00,
2013-05-13 01:11:00,66.0,49.0,-100.00,NNE,29,3.0,10.0,54,0.00,,,0.00,0.000000,,2013-05-13 07:11:00,
2013-05-13 01:21:00,66.0,49.0,-100.00,NNE,29,3.0,10.0,54,0.00,,,0.00,0.000000,,2013-05-13 07:21:00,
2013-05-13 01:31:00,66.0,49.0,-100.00,NNE,29,3.0,10.0,54,0.00,,,0.00,0.000000,,2013-05-13 07:31:00,
2013-05-13 01:41:00,66.0,49.0,-100.00,NNE,29,3.0,10.0,54,0.00,,,0.00,0.000000,,2013-05-13 07:41:00,
2013-05-13 02:02:00,64.0,49.0,-100.00,West,277,3.0,12.0,58,0.00,,,0.00,0.000000,,2013-05-13 08:02:00,
2013-05-13 02:11:00,64.0,49.0,-100.00,West,277,3.0,12.0,58,0.00,,,0.00,0.000000,,2013-05-13 08:11:00,
2013-05-13 02:21:00,64.0,49.0,-100.00,West,277,3.0,12.0,58,0.00,,,0.00,0.000000,,2013-05-13 08:21:00,
2013-05-13 02:31:00,64.0,49.0,-100.00,West,277,3.0,12.0,58,0.00,,,0.00,0.000000,,2013-05-13 08:31:00,
2013-05-13 02:41:00,64.0,49.0,-100.00,West,277,3.0,12.0,58,0.00,,,0.00,0.000000,,2013-05-13 08:41:00,
2013-05-13 02:42:00,62.0,48.0,-100.00,NW,315,5.0,12.0,60,0.00,,,0.00,0.000000,,2013-05-13 08:42:00,
2013-05-13 03:01:00,62.0,48.0,-100.00,NW,315,5.0,12.0,60,0.00,,,0.00,0.000000,,2013-05-13 09:01:00,
2013-05-13 03:11:00,62.0,48.0,-100.00,NW,315,5.0,12.0,60,0.00,,,0.00,0.000000,,2013-05-13 09:11:00,
2013-05-13 03:21:00,62.0,48.0,-100.00,NW,315,5.0,12.0,60,0.00,,,0.00,0.000000,,2013-05-13 09:21:00,
2013-05-13 03:33:00,62.0,48.0,-100.00,NW,315,5.0,12.0,60,0.00,,,0.00,0.000000,,2013-05-13 09:33:00,
2013-05-13 03:42:00,61.0,47.0,-100.00,NW,313,2.0,8.0,61,0.00,,,0.00,0.000000,,2013-05-13 09:42:00,
2013-05-13 04:02:00,61.0,47.0,-100.00,NW,313,2.0,8.0,61,0.00,,,0.00,0.000000,,2013-05-13 10:02:00,
2013-05-13 04:12:00,61.0,47.0,-100.00,NW,313,2.0,8.0,61,0.00,,,0.00,0.000000,,2013-05-13 10:12:00,
2013-05-13 04:22:00,61.0,47.0,-100.00,NW,313,2.0,8.0,61,0.00,,,0.00,0.000000,,2013-05-13 10:22:00,
2013-05-13 04:32:00,61.0,47.0,-100.00,NW,313,2.0,8.0,61,0.00,,,0.00,0.000000,,2013-05-13 10:32:00,
2013-05-13 05:02:00,60.0,49.0,-100.00,West,268,2.0,9.0,66,0.00,,,0.00,0.000000,,2013-05-13 11:02:00,
2013-05-13 05:12:00,60.0,49.0,-100.00,West,268,2.0,9.0,66,0.00,,,0.00,0.000000,,2013-05-13 11:12:00,
2013-05-13 05:21:00,60.0,49.0,-100.00,West,268,2.0,9.0,66,0.00,,,0.00,0.000000,,2013-05-13 11:21:00,
2013-05-13 05:32:00,60.0,49.0,-100.00,West,268,2.0,9.0,66,0.00,,,0.00,0.000000,,2013-05-13 11:32:00,
2013-05-13 05:41:00,60.0,49.0,-100.00,West,268,2.0,9.0,66,0.00,,,0.00,0.000000,,2013-05-13 11:41:00,
2013-05-13 06:01:00,59.0,48.0,-100.00,SW,227,1.0,8.0,68,0.00,,,0.00,0.000000,,2013-05-13 12:01:00,
2013-05-13 06:11:00,59.0,48.0,-100.00,SW,227,1.0,8.0,68,0.00,,,0.00,0.000000,,2013-05-13 12:11:00,
2013-05-13 06:21:00,59.0,48.0,-100.00,SW,227,1.0,8.0,68,0.00,,,0.00,0.000000,,2013-05-13 12:21:00,
2013-05-13 06:32:00,59.0,48.0,-100.00,SW,227,1.0,8.0,68,0.00,,,0.00,0.000000,,2013-05-13 12:32:00,
2013-05-13 06:41:00,59.0,48.0,-100.00,SW,227,1.0,8.0,68,0.00,,,0.00,0.000000,,2013-05-13 12:41:00,
2013-05-13 07:01:00,58.0,47.0,-100.00,SSW,195,0.0,6.0,68,0.00,,,0.00,3.000000,,2013-05-13 13:01:00,
2013-05-13 07:11:00,58.0,47.0,-100.00,SSW,195,0.0,6.0,68,0.00,,,0.00,3.000000,,2013-05-13 13:11:00,
2013-05-13 07:21:00,58.0,47.0,-100.00,SSW,195,0.0,6.0,68,0.00,,,0.00,3.000000,,2013-05-13 13:21:00,
2013-05-13 07:31:00,58.0,47.0,-100.00,SSW,195,0.0,6.0,68,0.00,,,0.00,3.000000,,2013-05-13 13:31:00,
2013-05-13 07:41:00,58.0,47.0,-100.00,SSW,195,0.0,6.0,68,0.00,,,0.00,3.000000,,2013-05-13 13:41:00,
2013-05-13 08:02:00,60.0,48.0,-100.00,NW,326,2.0,8.0,65,0.00,,,0.00,68.000000,,2013-05-13 14:02:00,
2013-05-13 08:11:00,60.0,48.0,-100.00,NW,326,2.0,8.0,65,0.00,,,0.00,68.000000,,2013-05-13 14:11:00,
2013-05-13 08:22:00,60.0,48.0,-100.00,NW,326,2.0,8.0,65,0.00,,,0.00,68.000000,,2013-05-13 14:22:00,
2013-05-13 08:31:00,60.0,48.0,-100.00,NW,326,2.0,8.0,65,0.00,,,0.00,68.000000,,2013-05-13 14:31:00,
2013-05-13 08:41:00,60.0,48.0,-100.00,NW,326,2.0,8.0,65,0.00,,,0.00,68.000000,,2013-05-13 14:41:00,
2013-05-13 08:42:00,66.0,50.0,-100.00,ENE,65,4.0,9.0,56,0.00,,,0.00,233.000000,,2013-05-13 14:42:00,
2013-05-13 09:01:00,66.0,50.0,-100.00,ENE,65,4.0,9.0,56,0.00,,,0.00,233.000000,,2013-05-13 15:01:00,
2013-05-13 09:11:00,66.0,50.0,-100.00,ENE,65,4.0,9.0,56,0.00,,,0.00,233.000000,,2013-05-13 15:11:00,
2013-05-13 09:21:00,66.0,50.0,-100.00,ENE,65,4.0,9.0,56,0.00,,,0.00,233.000000,,2013-05-13 15:21:00,
2013-05-13 09:31:00,66.0,50.0,-100.00,ENE,65,4.0,9.0,56,0.00,,,0.00,233.000000,,2013-05-13 15:31:00,
2013-05-13 09:42:00,68.0,49.0,-100.00,SSE,167,5.0,7.0,51,0.00,,,0.00,411.000000,,2013-05-13 15:42:00,
2013-05-13 10:03:00,68.0,49.0,-100.00,SSE,167,5.0,7.0,51,0.00,,,0.00,411.000000,,2013-05-13 16:03:00,
2013-05-13 10:11:00,68.0,49.0,-100.00,SSE,167,5.0,7.0,51,0.00,,,0.00,411.000000,,2013-05-13 16:11:00,
2013-05-13 10:21:00,68.0,49.0,-100.00,SSE,167,5.0,7.0,51,0.00,,,0.00,411.000000,,2013-05-13 16:21:00,
2013-05-13 10:33:00,68.0,49.0,-100.00,SSE,167,5.0,7.0,51,0.00,,,0.00,411.000000,,2013-05-13 16:33:00,
2013-05-13 11:02:00,70.0,48.0,-100.00,South,183,9.0,15.0,45,0.00,,,-99.99,582.000000,,2013-05-13 17:02:00,
2013-05-13 11:12:00,70.0,48.0,-100.00,South,183,9.0,15.0,45,0.00,,,-99.99,582.000000,,2013-05-13 17:12:00,
2013-05-13 11:21:00,70.0,48.0,-100.00,South,183,9.0,15.0,45,0.00,,,-99.99,582.000000,,2013-05-13 17:21:00,
2013-05-13 11:32:00,70.0,48.0,-100.00,South,183,9.0,15.0,45,0.00,,,-99.99,582.000000,,2013-05-13 17:32:00,
2013-05-13 11:41:00,70.0,48.0,-100.00,South,183,9.0,15.0,45,0.00,,,-99.99,582.000000,,2013-05-13 17:41:00,
2013-05-13 11:42:00,74.0,49.0,-100.00,SSW,193,14.0,24.0,41,0.00,,,0.00,730.000000,,2013-05-13 17:42:00,
2013-05-13 12:03:00,74.0,49.0,-100.00,SSW,193,14.0,24.0,41,0.00,,,0.00,730.000000,,2013-05-13 18:03:00,
2013-05-13 12:12:00,74.0,49.0,-100.00,SSW,193,14.0,24.0,41,0.00,,,0.00,730.000000,,2013-05-13 18:12:00,
2013-05-13 12:23:00,74.0,49.0,-100.00,SSW,193,14.0,24.0,41,0.00,,,0.00,730.000000,,2013-05-13 18:23:00,
2013-05-13 12:32:00,74.0,49.0,-100.00,SSW,193,14.0,24.0,41,0.00,,,0.00,730.000000,,2013-05-13 18:32:00,
2013-05-13 12:42:00,76.0,47.0,-100.00,South,188,10.0,22.0,36,0.00,,,0.00,841.000000,,2013-05-13 18:42:00,
2013-05-13 13:01:00,76.0,47.0,-100.00,South,188,10.0,22.0,36,0.00,,,0.00,841.000000,,2013-05-13 19:01:00,
2013-05-13 13:11:00,76.0,47.0,-100.00,South,188,10.0,22.0,36,0.00,,,0.00,841.000000,,2013-05-13 19:11:00,
2013-05-13 13:21:00,76.0,47.0,-100.00,South,188,10.0,22.0,36,0.00,,,0.00,841.000000,,2013-05-13 19:21:00,
2013-05-13 13:32:00,76.0,47.0,-100.00,South,188,10.0,22.0,36,0.00,,,0.00,841.000000,,2013-05-13 19:32:00,
2013-05-13 13:42:00,78.0,47.0,-100.00,SW,215,13.0,24.0,34,0.00,,,0.00,892.000000,,2013-05-13 19:42:00,
2013-05-13 14:01:00,78.0,47.0,-100.00,SW,215,13.0,24.0,34,0.00,,,0.00,892.000000,,2013-05-13 20:01:00,
2013-05-13 14:11:00,78.0,47.0,-100.00,SW,215,13.0,24.0,34,0.00,,,0.00,892.000000,,2013-05-13 20:11:00,
2013-05-13 14:23:00,78.0,47.0,-100.00,SW,215,13.0,24.0,34,0.00,,,0.00,892.000000,,2013-05-13 20:23:00,
2013-05-13 14:33:00,78.0,47.0,-100.00,SW,215,13.0,24.0,34,0.00,,,0.00,892.000000,,2013-05-13 20:33:00,
2013-05-13 14:42:00,80.0,41.0,-100.00,SW,219,15.0,28.0,25,0.00,,,0.00,928.000000,,2013-05-13 20:42:00,
2013-05-13 15:02:00,80.0,41.0,-100.00,SW,219,15.0,28.0,25,0.00,,,0.00,928.000000,,2013-05-13 21:02:00,
2013-05-13 15:14:00,80.0,41.0,-100.00,SW,219,15.0,28.0,25,0.00,,,0.00,928.000000,,2013-05-13 21:14:00,
2013-05-13 15:23:00,80.0,41.0,-100.00,SW,219,15.0,28.0,25,0.00,,,0.00,928.000000,,2013-05-13 21:23:00,
2013-05-13 15:33:00,80.0,41.0,-100.00,SW,219,15.0,28.0,25,0.00,,,0.00,928.000000,,2013-05-13 21:33:00,
2013-05-13 15:42:00,81.0,40.0,-100.00,SSW,212,16.0,30.0,23,0.00,,,0.00,880.000000,,2013-05-13 21:42:00,
2013-05-13 16:02:00,81.0,40.0,-100.00,SSW,212,16.0,30.0,23,0.00,,,0.00,880.000000,,2013-05-13 22:02:00,
2013-05-13 16:12:00,81.0,40.0,-100.00,SSW,212,16.0,30.0,23,0.00,,,0.00,880.000000,,2013-05-13 22:12:00,
2013-05-13 16:22:00,81.0,40.0,-100.00,SSW,212,16.0,30.0,23,0.00,,,0.00,880.000000,,2013-05-13 22:22:00,
2013-05-13 16:32:00,81.0,40.0,-100.00,SSW,212,16.0,30.0,23,0.00,,,0.00,880.000000,,2013-05-13 22:32:00,
2013-05-13 16:42:00,83.0,36.0,-100.00,SSW,196,20.0,30.0,19,0.00,,,0.00,767.000000,,2013-05-13 22:42:00,
2013-05-13 17:01:00,83.0,36.0,-100.00,SSW,196,20.0,30.0,19,0.00,,,0.00,767.000000,,2013-05-13 23:01:00,
2013-05-13 17:12:00,83.0,36.0,-100.00,SSW,196,20.0,30.0,19,0.00,,,0.00,767.000000,,2013-05-13 23:12:00,
2013-05-13 17:23:00,83.0,36.0,-100.00,SSW,196,20.0,30.0,19,0.00,,,0.00,767.000000,,2013-05-13 23:23:00,
2013-05-13 17:33:00,83.0,36.0,-100.00,SSW,196,20.0,30.0,19,0.00,,,0.00,767.000000,,2013-05-13 23:33:00,
2013-05-13 18:02:00,83.0,36.0,-100.00,SW,231,12.0,28.0,19,0.00,,,0.00,592.000000,,2013-05-14 00:02:00,
2013-05-13 18:12:00,83.0,36.0,-100.00,SW,231,12.0,28.0,19,0.00,,,0.00,592.000000,,2013-05-14 00:12:00,
2013-05-13 18:22:00,83.0,36.0,-100.00,SW,231,12.0,28.0,19,0.00,,,0.00,592.000000,,2013-05-14 00:22:00,
2013-05-13 18:31:00,83.0,36.0,-100.00,SW,231,12.0,28.0,19,0.00,,,0.00,592.000000,,2013-05-14 00:31:00,
2013-05-13 18:41:00,83.0,36.0,-100.00,SW,231,12.0,28.0,19,0.00,,,0.00,592.000000,,2013-05-14 00:41:00,
2013-05-13 18:42:00,82.0,36.0,-100.00,WSW,243,10.0,25.0,19,0.00,,,0.00,447.000000,,2013-05-14 00:42:00,
2013-05-13 19:01:00,82.0,36.0,-100.00,WSW,243,10.0,25.0,19,0.00,,,0.00,447.000000,,2013-05-14 01:01:00,
2013-05-13 19:11:00,82.0,36.0,-100.00,WSW,243,10.0,25.0,19,0.00,,,0.00,447.000000,,2013-05-14 01:11:00,
2013-05-13 19:21:00,82.0,36.0,-100.00,WSW,243,10.0,25.0,19,0.00,,,0.00,447.000000,,2013-05-14 01:21:00,
2013-05-13 19:31:00,82.0,36.0,-100.00,WSW,243,10.0,25.0,19,0.00,,,0.00,447.000000,,2013-05-14 01:31:00,
2013-05-13 19:42:00,75.0,43.0,-100.00,WNW,303,24.0,35.0,32,0.00,,,0.00,191.000000,,2013-05-14 01:42:00,
2013-05-13 20:02:00,75.0,43.0,-100.00,WNW,303,24.0,35.0,32,0.00,,,0.00,191.000000,,2013-05-14 02:02:00,
2013-05-13 20:11:00,75.0,43.0,-100.00,WNW,303,24.0,35.0,32,0.00,,,0.00,191.000000,,2013-05-14 02:11:00,
2013-05-13 20:21:00,75.0,43.0,-100.00,WNW,303,24.0,35.0,32,0.00,,,0.00,191.000000,,2013-05-14 02:21:00,
2013-05-13 20:31:00,75.0,43.0,-100.00,WNW,303,24.0,35.0,32,0.00,,,0.00,191.000000,,2013-05-14 02:31:00,
2013-05-13 20:42:00,66.0,44.0,-100.00,NNW,333,15.0,38.0,45,0.00,,,0.00,98.000000,,2013-05-14 02:42:00,
2013-05-13 21:01:00,66.0,44.0,-100.00,NNW,333,15.0,38.0,45,0.00,,,0.00,98.000000,,2013-05-14 03:01:00,
2013-05-13 21:11:00,66.0,44.0,-100.00,NNW,333,15.0,38.0,45,0.00,,,0.00,98.000000,,2013-05-14 03:11:00,
2013-05-13 21:21:00,66.0,44.0,-100.00,NNW,333,15.0,38.0,45,0.00,,,0.00,98.000000,,2013-05-14 03:21:00,
2013-05-13 21:33:00,66.0,44.0,-100.00,NNW,333,15.0,38.0,45,0.00,,,0.00,98.000000,,2013-05-14 03:33:00,
2013-05-13 21:42:00,63.0,45.0,-100.00,ENE,62,2.0,22.0,52,0.00,,,0.00,17.000000,,2013-05-14 03:42:00,
2013-05-13 22:02:00,63.0,45.0,-100.00,ENE,62,2.0,22.0,52,0.00,,,0.00,17.000000,,2013-05-14 04:02:00,
2013-05-13 22:13:00,63.0,45.0,-100.00,ENE,62,2.0,22.0,52,0.00,,,0.00,17.000000,,2013-05-14 04:13:00,
2013-05-13 22:22:00,63.0,45.0,-100.00,ENE,62,2.0,22.0,52,0.00,,,0.00,17.000000,,2013-05-14 04:22:00,
2013-05-13 22:32:00,63.0,45.0,-100.00,ENE,62,2.0,22.0,52,0.00,,,0.00,17.000000,,2013-05-14 04:32:00,
2013-05-13 22:42:00,60.0,46.0,-100.00,NE,39,5.0,12.0,59,0.00,,,-99.99,0.000000,,2013-05-14 04:42:00,
2013-05-13 23:01:00,60.0,46.0,-100.00,NE,39,5.0,12.0,59,0.00,,,-99.99,0.000000,,2013-05-14 05:01:00,
2013-05-13 23:12:00,60.0,46.0,-100.00,NE,39,5.0,12.0,59,0.00,,,-99.99,0.000000,,2013-05-14 05:12:00,
2013-05-13 23:21:00,60.0,46.0,-100.00,NE,39,5.0,12.0,59,0.00,,,-99.99,0.000000,,2013-05-14 05:21:00,
2013-05-13 23:32:00,60.0,46.0,-100.00,NE,39,5.0,12.0,59,0.00,,,-99.99,0.000000,,2013-05-14 05:32:00,
2013-05-13 23:42:00,58.0,45.0,-100.00,NE,36,4.0,13.0,61,0.00,,,0.00,0.000000,,2013-05-14 05:42:00,